Fort Saint John, British Columbia

6:41 AM MST on December 03, 2016 (GMT -0700)
100.1 Moose FM | | Change Station

Elev 2270 ft 56.25 °N, 120.85 °W | Updated 1 second ago

Mostly Cloudy
Mostly Cloudy
33.0 °F
Feels Like 26 °F
N
8.0
Wind Variable Wind from South

Today
High -- | Low -- °F
--% Chance of Precip.
Yesterday
High -- | Low -- °F
Precip. -- in
Pressure 29.61 in
Visibility 15.0 miles
Clouds Mostly Cloudy 15000 ft
Windchill 26 °F
Dew Point 24 °F
Humidity 70%
Rainfall 0.00 in
Snow Depth Not available.
9:15 AM 4:30 PM
Waxing Crescent, 15% visible
METAR CYXJ 031300Z 22020KT 15SM BKN150 01/M05 A2950 RMK AC7 SLP025
Pressure 29.61 in
Visibility 15.0 miles
Clouds Mostly Cloudy 15000 ft
Windchill 26 °F
Dew Point 24 °F
Humidity 70%
Rainfall 0.00 in
Snow Depth Not available.
9:15 AM 4:30 PM
Waxing Crescent, 15% visible
METAR CYXJ 031300Z 22020KT 15SM BKN150 01/M05 A2950 RMK AC7 SLP025

10-Day Weather Forecast

Almanac

Astronomy

Dec. 03, 2016 Rise Set
Actual Time
Civil Twilight
Nautical Twilight
Astronomical Twilight
Moon
Length of Visible Light
Length of Day
Tomorrow will be .
, % of the Moon is Illuminated

Today's Extremes

Country Highs Country Lows

Community

WunderPhotos

Upload Photos

1,955,446 photos uploaded!

WunderBlog® & News

Nearby

Air Quality

  Air Quality AQ Index Pollutant
Not available.

Snow Depth

Station Depth Elevation

Earthquake Activity

City Distance Mag. Time & Date
Minimum magnitude displayed is 2.5.

Coastal Water Temperatures

Place Temperature

Stations

Nearby Weather Stations

Station Location Temp. Windchill Dew Point Humidity Wind Precip. Elev Updated Type
                   

Watches & Warnings

There are currently no watches in effect.